createdAt,value
2019-02-21T00:00:50.729Z,4.98
2019-02-21T00:03:53.934Z,4.91
2019-02-21T00:06:57.155Z,4.84
2019-02-21T00:10:00.513Z,4.74
2019-02-21T00:13:03.522Z,4.77
2019-02-21T00:16:07.648Z,4.83
2019-02-21T00:19:10.836Z,4.86
2019-02-21T00:22:14.056Z,4.83
2019-02-21T00:25:17.308Z,4.79
2019-02-21T00:28:20.445Z,4.72
2019-02-21T00:31:23.632Z,4.65
2019-02-21T00:34:26.819Z,4.56
2019-02-21T00:37:29.999Z,4.55
2019-02-21T00:40:33.190Z,4.53
2019-02-21T00:43:36.301Z,4.54
2019-02-21T00:46:40.291Z,4.46
2019-02-21T00:49:43.497Z,4.32
2019-02-21T00:52:46.704Z,4.29
2019-02-21T00:55:49.903Z,4.23
2019-02-21T00:58:53.124Z,4.30
2019-02-21T01:01:56.425Z,4.32
2019-02-21T01:04:59.590Z,4.37
2019-02-21T01:08:02.783Z,4.42
2019-02-21T01:11:05.980Z,4.44
2019-02-21T01:14:09.155Z,4.47
2019-02-21T01:17:12.355Z,4.46
2019-02-21T01:20:15.640Z,4.38
2019-02-21T01:23:19.439Z,4.34
2019-02-21T01:26:22.556Z,4.36
2019-02-21T01:29:25.744Z,4.43
2019-02-21T01:32:28.944Z,4.42
2019-02-21T01:35:32.119Z,4.49
2019-02-21T01:38:35.235Z,4.57
2019-02-21T01:41:38.425Z,4.61
2019-02-21T01:44:41.607Z,4.63
2019-02-21T01:47:44.830Z,4.67
2019-02-21T01:50:47.987Z,4.67
2019-02-21T01:53:51.099Z,4.73
2019-02-21T01:56:54.295Z,4.71
2019-02-21T01:59:57.474Z,4.66
2019-02-21T02:03:00.670Z,4.69
2019-02-21T02:06:03.864Z,4.64
2019-02-21T02:09:09.491Z,4.71
2019-02-21T02:12:12.624Z,4.68
2019-02-21T02:15:15.791Z,4.73
2019-02-21T02:18:19.010Z,4.71
2019-02-21T02:21:22.186Z,4.66
2019-02-21T02:24:25.284Z,4.64
2019-02-21T02:27:28.484Z,4.66
2019-02-21T02:30:31.696Z,4.65
2019-02-21T02:33:34.987Z,4.65
2019-02-21T02:36:38.181Z,4.71
2019-02-21T02:39:41.510Z,4.66
2019-02-21T02:42:44.680Z,4.63
2019-02-21T02:45:47.953Z,4.65
2019-02-21T02:48:51.140Z,4.64
2019-02-21T02:51:54.342Z,4.58
2019-02-21T02:54:57.527Z,4.63
2019-02-21T02:58:00.832Z,4.52
2019-02-21T03:01:04.145Z,4.51
2019-02-21T03:04:07.339Z,4.45
2019-02-21T03:07:10.516Z,4.50
2019-02-21T03:10:14.411Z,4.46
2019-02-21T03:13:17.534Z,4.44
2019-02-21T03:16:20.628Z,4.47
2019-02-21T03:19:24.022Z,4.54
2019-02-21T03:22:27.223Z,4.48
2019-02-21T03:25:30.459Z,4.48
2019-02-21T03:28:33.614Z,4.50
2019-02-21T03:31:53.399Z,4.50
2019-02-21T03:34:39.972Z,4.58
2019-02-21T03:37:43.181Z,4.62
2019-02-21T03:40:46.259Z,4.61
2019-02-21T03:43:49.386Z,4.65
2019-02-21T03:46:52.703Z,4.70
2019-02-21T03:49:55.880Z,4.66
2019-02-21T03:52:59.048Z,4.57
2019-02-21T03:56:02.253Z,4.63
2019-02-21T03:59:05.636Z,4.61
2019-02-21T04:02:08.843Z,4.70
2019-02-21T04:05:12.043Z,4.75
2019-02-21T04:08:15.321Z,4.77
2019-02-21T04:11:18.432Z,4.79
2019-02-21T04:14:22.672Z,4.81
2019-02-21T04:17:25.932Z,4.83
2019-02-21T04:20:29.036Z,4.86
2019-02-21T04:23:32.243Z,4.91
2019-02-21T04:26:35.415Z,4.89
2019-02-21T04:29:38.604Z,4.90
2019-02-21T04:32:41.818Z,4.86
2019-02-21T04:35:45.102Z,4.76
2019-02-21T04:38:48.200Z,4.78
2019-02-21T04:41:51.401Z,4.77
2019-02-21T04:44:54.591Z,4.76
2019-02-21T04:47:57.759Z,4.79
2019-02-21T04:51:00.987Z,4.80
2019-02-21T04:54:04.167Z,4.75
2019-02-21T04:57:07.371Z,4.82
2019-02-21T05:00:11.540Z,4.86
2019-02-21T05:03:14.673Z,4.84
2019-02-21T05:06:17.853Z,4.87
2019-02-21T05:09:21.087Z,4.93
2019-02-21T05:12:24.191Z,4.97
2019-02-21T05:15:27.423Z,4.98
2019-02-21T05:18:30.519Z,5.00
2019-02-21T05:21:33.622Z,5.03
2019-02-21T05:24:36.825Z,5.05
2019-02-21T05:27:44.101Z,5.04
2019-02-21T05:30:47.327Z,5.08
2019-02-21T05:33:57.542Z,5.07
2019-02-21T05:37:04.811Z,5.06
2019-02-21T05:40:13.354Z,5.06
2019-02-21T05:43:22.727Z,5.10
2019-02-21T05:46:31.965Z,5.11
2019-02-21T05:49:42.304Z,5.13
2019-02-21T05:52:49.566Z,5.14
2019-02-21T05:56:02.239Z,5.17
2019-02-21T05:59:12.419Z,5.19
2019-02-21T06:02:20.981Z,5.22
2019-02-21T06:05:29.242Z,5.20
2019-02-21T06:08:37.869Z,5.18
2019-02-21T06:12:51.231Z,5.19
2019-02-21T06:16:01.422Z,5.15
2019-02-21T06:21:16.223Z,5.15
2019-02-21T06:25:22.435Z,5.06
2019-02-21T06:28:30.621Z,5.04
2019-02-21T06:31:33.818Z,5.02
2019-02-21T06:34:36.975Z,4.98
2019-02-21T06:37:40.188Z,5.01
2019-02-21T06:40:43.391Z,4.93
2019-02-21T06:43:46.675Z,4.95
2019-02-21T06:46:49.885Z,5.01
2019-02-21T06:49:53.155Z,4.94
2019-02-21T06:52:56.356Z,4.96
2019-02-21T06:55:59.551Z,4.97
2019-02-21T06:59:02.841Z,5.06
2019-02-21T07:02:06.042Z,5.17
2019-02-21T07:05:09.266Z,5.22
2019-02-21T07:08:12.524Z,5.25
2019-02-21T07:11:15.741Z,5.29
2019-02-21T07:14:18.908Z,5.32
2019-02-21T07:17:22.027Z,5.33
2019-02-21T07:20:25.250Z,5.37
2019-02-21T07:23:32.525Z,5.43
2019-02-21T07:26:31.631Z,5.51
2019-02-21T07:29:34.904Z,5.57
2019-02-21T07:32:38.203Z,5.67
2019-02-21T07:35:41.479Z,5.73
2019-02-21T07:38:44.691Z,5.80
2019-02-21T07:41:49.975Z,5.84
2019-02-21T07:44:51.110Z,5.92
2019-02-21T07:47:54.461Z,6.02
2019-02-21T07:50:58.275Z,6.10
2019-02-21T07:54:01.580Z,6.16
2019-02-21T07:57:04.801Z,6.25
2019-02-21T08:00:09.103Z,6.28
2019-02-21T08:03:12.397Z,6.33
2019-02-21T08:06:15.588Z,6.38
2019-02-21T08:09:19.026Z,6.50
2019-02-21T08:12:23.261Z,6.65
2019-02-21T08:15:27.542Z,6.76
2019-02-21T08:18:28.383Z,6.86
2019-02-21T08:21:31.574Z,6.91
2019-02-21T08:24:34.789Z,7.01
2019-02-21T08:27:37.936Z,7.09
2019-02-21T08:30:41.139Z,7.18
2019-02-21T08:33:58.056Z,7.26
2019-02-21T08:36:52.543Z,7.29
2019-02-21T08:39:55.768Z,7.35
2019-02-21T08:42:58.859Z,7.50
2019-02-21T08:46:02.019Z,7.46
2019-02-21T08:49:05.225Z,7.52
2019-02-21T08:52:08.306Z,7.59
2019-02-21T08:55:11.496Z,7.59
2019-02-21T08:58:14.687Z,7.59
2019-02-21T09:01:17.795Z,7.65
2019-02-21T09:04:27.368Z,7.76
2019-02-21T09:07:24.186Z,7.85
2019-02-21T09:10:27.835Z,7.87
2019-02-21T09:13:30.574Z,7.91
2019-02-21T09:16:33.665Z,8.05
2019-02-21T09:19:36.987Z,8.14
2019-02-21T09:22:40.060Z,8.10
2019-02-21T09:25:43.247Z,8.22
2019-02-21T09:28:46.442Z,8.36
2019-02-21T09:31:49.642Z,8.47
2019-02-21T09:34:52.933Z,8.64
2019-02-21T09:37:56.027Z,8.82
2019-02-21T09:40:59.405Z,8.84
2019-02-21T09:44:02.617Z,9.10
2019-02-21T09:47:05.916Z,9.13
2019-02-21T09:50:09.221Z,9.28
2019-02-21T09:53:12.407Z,9.30
2019-02-21T09:56:15.596Z,9.07
2019-02-21T09:59:18.703Z,9.20
2019-02-21T10:02:23.215Z,9.30
2019-02-21T10:05:26.124Z,9.29
2019-02-21T10:08:29.372Z,9.63
2019-02-21T10:11:32.593Z,9.62
2019-02-21T10:14:35.889Z,9.85
2019-02-21T10:17:39.100Z,9.96
2019-02-21T10:20:42.399Z,10.04
2019-02-21T10:23:45.572Z,9.93
2019-02-21T10:26:48.691Z,10.05
2019-02-21T10:29:51.882Z,10.05
2019-02-21T10:32:55.072Z,10.09
2019-02-21T10:36:00.426Z,10.21
2019-02-21T10:39:01.455Z,10.35
2019-02-21T10:42:04.678Z,10.58
2019-02-21T10:45:10.517Z,10.78
2019-02-21T10:48:13.836Z,10.83
2019-02-21T10:51:17.031Z,10.96
2019-02-21T10:54:20.179Z,10.98
2019-02-21T10:57:23.395Z,11.01
2019-02-21T11:00:27.160Z,10.88
2019-02-21T11:03:30.381Z,10.88
2019-02-21T11:06:33.583Z,10.81
2019-02-21T11:09:36.885Z,10.77
2019-02-21T11:12:40.088Z,10.65
2019-02-21T11:15:43.372Z,10.61
2019-02-21T11:18:46.556Z,10.61
2019-02-21T11:21:49.765Z,10.61
2019-02-21T11:24:52.932Z,10.67
2019-02-21T11:27:56.044Z,10.72
2019-02-21T11:30:59.397Z,10.84
2019-02-21T11:34:02.550Z,10.98
2019-02-21T11:37:05.732Z,11.24
2019-02-21T11:40:09.977Z,11.67
2019-02-21T11:43:13.148Z,12.31
2019-02-21T11:46:16.353Z,12.35
2019-02-21T11:49:19.535Z,12.37
2019-02-21T11:52:22.811Z,12.49
2019-02-21T11:55:26.029Z,12.20
2019-02-21T11:58:29.316Z,12.11
2019-02-21T12:01:32.500Z,12.09
2019-02-21T12:04:35.750Z,12.07
2019-02-21T12:07:39.633Z,11.99
2019-02-21T12:10:43.080Z,12.07
2019-02-21T12:13:46.219Z,12.22
2019-02-21T12:16:49.470Z,12.31
2019-02-21T12:19:52.597Z,12.37
2019-02-21T12:22:55.784Z,12.32
2019-02-21T12:25:59.014Z,12.39
2019-02-21T12:29:02.211Z,12.42
2019-02-21T12:32:05.425Z,12.46
2019-02-21T12:35:08.600Z,12.53
2019-02-21T12:38:11.789Z,12.66
2019-02-21T12:41:15.008Z,12.83
2019-02-21T12:44:18.284Z,12.88
2019-02-21T12:47:21.459Z,12.90
2019-02-21T12:50:24.666Z,12.94
2019-02-21T12:53:28.297Z,12.97
2019-02-21T12:56:31.059Z,13.10
2019-02-21T12:59:34.264Z,13.57
2019-02-21T13:02:38.855Z,13.80
2019-02-21T13:05:44.552Z,13.83
2019-02-21T13:08:45.280Z,13.78
2019-02-21T13:11:48.568Z,13.72
2019-02-21T13:14:51.688Z,13.73
2019-02-21T13:17:54.943Z,13.77
2019-02-21T13:20:58.175Z,13.61
2019-02-21T13:24:01.338Z,13.56
2019-02-21T13:27:04.444Z,13.59
2019-02-21T13:30:10.195Z,13.57
2019-02-21T13:33:14.297Z,13.60
2019-02-21T13:36:17.521Z,13.60
2019-02-21T13:39:20.641Z,13.61
2019-02-21T13:42:23.866Z,13.81
2019-02-21T13:45:27.069Z,14.23
2019-02-21T13:48:30.203Z,14.91
2019-02-21T13:51:33.463Z,14.90
2019-02-21T13:54:36.653Z,14.71
2019-02-21T13:57:39.871Z,14.60
2019-02-21T14:00:43.043Z,14.43
2019-02-21T14:03:46.277Z,14.23
2019-02-21T14:06:49.366Z,13.91
2019-02-21T14:09:52.526Z,13.92
2019-02-21T14:12:55.607Z,13.92
2019-02-21T14:15:58.776Z,13.89
2019-02-21T14:19:01.909Z,13.89
2019-02-21T14:22:05.102Z,13.90
2019-02-21T14:25:08.629Z,13.80
2019-02-21T14:28:11.804Z,13.73
2019-02-21T14:31:14.988Z,13.64
2019-02-21T14:34:18.091Z,13.71
2019-02-21T14:37:21.314Z,13.66
2019-02-21T14:40:24.487Z,13.61
2019-02-21T14:43:27.753Z,13.48
2019-02-21T14:46:30.873Z,13.47
2019-02-21T14:49:34.081Z,13.68
2019-02-21T14:52:37.259Z,13.98
2019-02-21T14:55:40.380Z,14.21
2019-02-21T14:58:43.541Z,14.26
2019-02-21T15:01:46.745Z,14.31
2019-02-21T15:04:50.129Z,14.42
2019-02-21T15:07:53.346Z,14.44
2019-02-21T15:10:56.517Z,14.38
2019-02-21T15:13:59.607Z,14.38
2019-02-21T15:17:03.858Z,14.29
2019-02-21T15:20:08.167Z,14.19
2019-02-21T15:23:11.370Z,14.12
2019-02-21T15:26:14.921Z,14.11
2019-02-21T15:29:18.775Z,14.02
2019-02-21T15:32:22.528Z,13.88
2019-02-21T15:35:25.681Z,13.84
2019-02-21T15:38:28.875Z,13.80
2019-02-21T15:41:31.994Z,13.71
2019-02-21T15:44:35.135Z,13.66
2019-02-21T15:47:38.228Z,13.56
2019-02-21T15:50:41.448Z,13.50
2019-02-21T15:53:44.735Z,13.43
2019-02-21T15:56:47.924Z,13.37
2019-02-21T15:59:51.120Z,13.37
2019-02-21T16:02:54.312Z,13.33
2019-02-21T16:05:57.612Z,13.21
2019-02-21T16:09:00.710Z,13.18
2019-02-21T16:12:05.455Z,13.16
2019-02-21T16:15:08.219Z,13.12
2019-02-21T16:18:13.795Z,13.07
2019-02-21T16:21:14.608Z,13.01
2019-02-21T16:24:17.707Z,12.97
2019-02-21T16:27:20.895Z,12.86
2019-02-21T16:30:24.356Z,12.72
2019-02-21T16:33:27.555Z,12.65
2019-02-21T16:36:30.852Z,12.58
2019-02-21T16:39:34.012Z,12.45
2019-02-21T16:42:39.172Z,12.37
2019-02-21T16:45:46.386Z,12.30
2019-02-21T16:48:45.611Z,12.21
2019-02-21T16:51:48.784Z,12.11
2019-02-21T16:54:53.229Z,12.08
2019-02-21T16:57:56.466Z,12.07
2019-02-21T17:00:59.713Z,12.08
2019-02-21T17:04:02.931Z,12.08
2019-02-21T17:07:13.500Z,12.09
2019-02-21T17:10:09.566Z,12.07
2019-02-21T17:13:12.670Z,12.07
2019-02-21T17:16:15.887Z,12.08
2019-02-21T17:19:19.082Z,12.03
2019-02-21T17:22:22.314Z,12.08
2019-02-21T17:25:26.727Z,12.13
2019-02-21T17:28:30.024Z,12.15
2019-02-21T17:31:33.251Z,12.14
2019-02-21T17:34:36.479Z,12.18
2019-02-21T17:37:39.611Z,12.14
2019-02-21T17:40:42.803Z,12.10
2019-02-21T17:43:47.872Z,12.06
2019-02-21T17:46:49.218Z,12.05
2019-02-21T17:49:52.392Z,12.01
2019-02-21T17:52:55.592Z,11.98
2019-02-21T17:55:58.871Z,11.92
2019-02-21T17:59:02.088Z,11.84
2019-02-21T18:02:05.266Z,11.76
2019-02-21T18:05:09.087Z,11.70
2019-02-21T18:08:12.259Z,11.69
2019-02-21T18:11:15.470Z,11.64
2019-02-21T18:14:18.609Z,11.59
2019-02-21T18:17:21.770Z,11.51
2019-02-21T18:20:24.943Z,11.49
2019-02-21T18:23:28.058Z,11.46
2019-02-21T18:26:32.043Z,11.38
2019-02-21T18:29:34.556Z,11.33
2019-02-21T18:32:37.773Z,11.31
2019-02-21T18:35:40.985Z,11.31
2019-02-21T18:38:44.206Z,11.34
2019-02-21T18:41:47.514Z,11.30
2019-02-21T18:44:50.716Z,11.27
2019-02-21T18:47:53.936Z,11.27
2019-02-21T18:50:57.085Z,11.29
2019-02-21T18:54:00.285Z,11.24
2019-02-21T18:57:03.479Z,11.20
2019-02-21T19:00:08.415Z,11.18
2019-02-21T19:03:11.599Z,11.17
2019-02-21T19:06:14.834Z,11.16
2019-02-21T19:09:17.980Z,11.18
2019-02-21T19:12:21.089Z,11.14
2019-02-21T19:15:24.337Z,11.14
2019-02-21T19:18:27.443Z,11.11
2019-02-21T19:21:30.571Z,11.07
2019-02-21T19:24:33.888Z,10.97
2019-02-21T19:27:37.720Z,10.84
2019-02-21T19:30:43.892Z,10.80
2019-02-21T19:33:47.068Z,10.84
2019-02-21T19:36:50.164Z,10.83
2019-02-21T19:39:53.386Z,10.84
2019-02-21T19:42:56.515Z,10.83
2019-02-21T19:45:59.746Z,10.84
2019-02-21T19:49:02.927Z,10.82
2019-02-21T19:52:06.157Z,10.79
2019-02-21T19:55:09.301Z,10.77
2019-02-21T19:58:12.499Z,10.74
2019-02-21T20:01:15.635Z,10.65
2019-02-21T20:04:18.816Z,10.63
2019-02-21T20:07:21.980Z,10.66
2019-02-21T20:10:25.167Z,10.63
2019-02-21T20:13:28.372Z,10.63
2019-02-21T20:16:31.565Z,10.63
2019-02-21T20:19:34.787Z,10.61
2019-02-21T20:22:37.964Z,10.61
2019-02-21T20:25:41.153Z,10.62
2019-02-21T20:28:44.307Z,10.61
2019-02-21T20:31:47.604Z,10.55
2019-02-21T20:34:50.816Z,10.53
2019-02-21T20:37:53.916Z,10.51
2019-02-21T20:40:57.116Z,10.51
2019-02-21T20:44:01.320Z,10.55
2019-02-21T20:47:04.443Z,10.56
2019-02-21T20:50:07.682Z,10.55
2019-02-21T20:53:10.949Z,10.55
2019-02-21T20:56:14.203Z,10.55
2019-02-21T20:59:17.522Z,10.51
2019-02-21T21:02:20.613Z,10.45
2019-02-21T21:05:23.830Z,10.42
2019-02-21T21:08:27.126Z,10.39
2019-02-21T21:11:30.275Z,10.39
2019-02-21T21:14:33.496Z,10.39
2019-02-21T21:17:36.873Z,10.37
2019-02-21T21:20:40.103Z,10.38
2019-02-21T21:23:43.346Z,10.35
2019-02-21T21:26:46.511Z,10.32
2019-02-21T21:29:49.647Z,10.29
2019-02-21T21:32:52.792Z,10.28
2019-02-21T21:35:55.939Z,10.28
2019-02-21T21:38:59.087Z,10.25
2019-02-21T21:42:02.339Z,10.25
2019-02-21T21:45:07.495Z,10.23
2019-02-21T21:48:11.103Z,10.22
2019-02-21T21:51:14.783Z,10.19
2019-02-21T21:54:18.184Z,10.15
2019-02-21T21:57:21.474Z,10.15
2019-02-21T22:00:24.697Z,10.12
2019-02-21T22:03:27.944Z,10.11
2019-02-21T22:06:31.058Z,10.10
2019-02-21T22:09:34.422Z,10.11
2019-02-21T22:12:37.680Z,10.14
2019-02-21T22:15:41.675Z,10.15
2019-02-21T22:18:44.936Z,10.15
2019-02-21T22:21:48.083Z,10.17
2019-02-21T22:24:52.063Z,10.12
2019-02-21T22:27:55.270Z,10.12
2019-02-21T22:30:58.491Z,10.10
2019-02-21T22:34:01.756Z,10.11
2019-02-21T22:37:05.754Z,10.10
2019-02-21T22:40:10.308Z,10.08
2019-02-21T22:43:13.516Z,10.07
2019-02-21T22:46:16.635Z,10.03
2019-02-21T22:49:19.783Z,10.03
2019-02-21T22:52:23.206Z,10.04
2019-02-21T22:55:26.621Z,10.05
2019-02-21T22:58:29.794Z,10.05
2019-02-21T23:01:37.680Z,10.00
2019-02-21T23:09:27.406Z,9.96
2019-02-21T23:12:23.415Z,9.93
2019-02-21T23:15:26.630Z,9.90
2019-02-21T23:18:29.763Z,9.88
2019-02-21T23:21:32.897Z,9.85
2019-02-21T23:24:37.015Z,9.82
2019-02-21T23:27:40.106Z,9.81
2019-02-21T23:30:43.315Z,9.83
2019-02-21T23:33:49.491Z,9.83
2019-02-21T23:36:52.662Z,9.83
2019-02-21T23:39:55.858Z,9.84
2019-02-21T23:42:58.948Z,9.83
2019-02-21T23:46:02.240Z,9.85
2019-02-21T23:49:05.551Z,9.87
2019-02-21T23:52:08.763Z,9.87
2019-02-21T23:55:11.922Z,9.87
2019-02-21T23:58:15.131Z,9.83
